createdAt,value
2022-12-23T00:00:11.077Z,28.52
2022-12-23T00:01:12.125Z,28.56
2022-12-23T00:02:11.229Z,26.90
2022-12-23T00:03:11.232Z,26.32
2022-12-23T00:04:11.163Z,25.74
2022-12-23T00:05:11.084Z,25.18
2022-12-23T00:06:14.075Z,24.90
2022-12-23T00:07:11.079Z,27.94
2022-12-23T00:08:11.074Z,26.24
2022-12-23T00:09:11.079Z,25.20
2022-12-23T00:10:11.077Z,26.04
2022-12-23T00:11:18.093Z,27.52
2022-12-23T00:12:15.078Z,24.74
2022-12-23T00:13:15.079Z,25.58
2022-12-23T00:14:20.427Z,26.86
2022-12-23T00:15:13.341Z,25.20
2022-12-23T00:16:11.155Z,25.54
2022-12-23T00:17:22.107Z,24.86
2022-12-23T00:18:13.338Z,23.86
2022-12-23T00:19:11.096Z,26.14
2022-12-23T00:20:11.117Z,24.04
2022-12-23T00:21:13.100Z,24.06
2022-12-23T00:22:11.114Z,26.20
2022-12-23T00:23:11.083Z,26.30
2022-12-23T00:24:11.076Z,25.74
2022-12-23T00:25:11.075Z,27.96
2022-12-23T00:26:14.084Z,27.48
2022-12-23T00:27:11.094Z,26.86
2022-12-23T00:28:17.077Z,25.68
2022-12-23T00:29:11.088Z,26.36
2022-12-23T00:30:12.096Z,26.10
2022-12-23T00:31:11.207Z,28.16
2022-12-23T00:32:11.151Z,27.02
2022-12-23T00:33:11.146Z,26.40
2022-12-23T00:34:11.105Z,29.26
2022-12-23T00:35:11.081Z,28.12
2022-12-23T00:36:21.186Z,24.78
2022-12-23T00:37:11.082Z,25.80
2022-12-23T00:38:11.080Z,29.36
2022-12-23T00:39:15.092Z,29.70
2022-12-23T00:40:15.085Z,28.08
2022-12-23T00:41:15.085Z,29.44
2022-12-23T00:42:15.077Z,32.14
2022-12-23T00:43:11.082Z,31.10
2022-12-23T00:44:11.092Z,28.62
2022-12-23T00:45:15.083Z,29.36
2022-12-23T00:46:11.187Z,29.92
2022-12-23T00:47:11.078Z,28.44
2022-12-23T00:48:15.082Z,27.72
2022-12-23T00:49:17.097Z,29.80
2022-12-23T00:50:11.075Z,30.56
2022-12-23T00:51:11.082Z,28.38
2022-12-23T00:52:12.088Z,29.04
2022-12-23T00:53:11.078Z,28.72
2022-12-23T00:54:11.082Z,29.18
2022-12-23T00:55:11.084Z,27.22
2022-12-23T00:56:11.075Z,28.14
2022-12-23T00:57:11.093Z,25.84
2022-12-23T00:58:11.116Z,30.42
2022-12-23T00:59:11.083Z,30.04
2022-12-23T01:00:11.064Z,30.18
2022-12-23T01:01:15.115Z,28.90
2022-12-23T01:02:15.222Z,28.96
2022-12-23T01:03:15.203Z,28.96
2022-12-23T01:04:17.069Z,28.36
2022-12-23T01:05:15.073Z,25.54
2022-12-23T01:06:11.061Z,29.48
2022-12-23T01:07:11.075Z,28.46
2022-12-23T01:08:11.062Z,28.52
2022-12-23T01:09:11.063Z,28.50
2022-12-23T01:10:11.063Z,30.30
2022-12-23T01:11:11.062Z,29.00
2022-12-23T01:12:11.065Z,29.26
2022-12-23T01:13:11.065Z,29.16
2022-12-23T01:14:11.064Z,27.10
2022-12-23T01:15:11.063Z,27.66
2022-12-23T01:16:16.900Z,26.54
2022-12-23T01:17:13.468Z,27.98
2022-12-23T01:18:11.061Z,29.12
2022-12-23T01:19:11.716Z,28.58
2022-12-23T01:20:11.075Z,28.60
2022-12-23T01:21:11.062Z,31.80
2022-12-23T01:22:11.069Z,30.46
2022-12-23T01:23:11.074Z,29.32
2022-12-23T01:24:11.062Z,31.06
2022-12-23T01:25:11.066Z,29.72
2022-12-23T01:26:11.073Z,27.60
2022-12-23T01:27:11.075Z,28.24
2022-12-23T01:28:11.067Z,24.98
2022-12-23T01:29:11.079Z,27.64
2022-12-23T01:30:11.064Z,26.18
2022-12-23T01:31:12.071Z,21.08
2022-12-23T01:32:11.124Z,25.36
2022-12-23T01:33:11.069Z,27.32
2022-12-23T01:34:11.063Z,25.56
2022-12-23T01:35:11.076Z,23.34
2022-12-23T01:36:11.081Z,24.36
2022-12-23T01:37:11.061Z,21.88
2022-12-23T01:38:11.068Z,22.80
2022-12-23T01:39:11.069Z,22.92
2022-12-23T01:40:11.069Z,23.06
2022-12-23T01:41:15.073Z,22.46
2022-12-23T01:42:17.089Z,24.52
2022-12-23T01:43:18.063Z,25.10
2022-12-23T01:44:19.067Z,28.54
2022-12-23T01:45:16.074Z,26.76
2022-12-23T01:46:11.186Z,24.46
2022-12-23T01:47:12.066Z,26.94
2022-12-23T01:48:13.068Z,26.32
2022-12-23T01:49:11.066Z,24.14
2022-12-23T01:50:17.067Z,23.54
2022-12-23T01:51:16.064Z,22.90
2022-12-23T01:52:11.071Z,23.64
2022-12-23T01:53:19.067Z,26.32
2022-12-23T01:54:11.067Z,24.68
2022-12-23T01:55:11.067Z,25.28
2022-12-23T01:56:19.066Z,27.16
2022-12-23T01:57:11.082Z,25.10
2022-12-23T01:58:15.072Z,27.32
2022-12-23T01:59:12.075Z,25.90
2022-12-23T02:00:15.065Z,26.70
2022-12-23T02:01:15.135Z,25.88
2022-12-23T02:02:15.217Z,25.98
2022-12-23T02:03:15.151Z,28.82
2022-12-23T02:04:13.091Z,29.42
2022-12-23T02:05:11.065Z,25.58
2022-12-23T02:06:23.102Z,28.26
2022-12-23T02:07:15.069Z,32.32
2022-12-23T02:08:16.069Z,28.58
2022-12-23T02:09:19.184Z,29.16
2022-12-23T02:10:11.065Z,26.80
2022-12-23T02:11:19.070Z,29.14
2022-12-23T02:12:21.069Z,32.28
2022-12-23T02:13:19.069Z,29.84
2022-12-23T02:14:23.066Z,27.98
2022-12-23T02:15:23.071Z,29.24
2022-12-23T02:16:15.189Z,31.32
2022-12-23T02:17:23.079Z,31.54
2022-12-23T02:18:21.077Z,31.00
2022-12-23T02:19:18.068Z,29.64
2022-12-23T02:20:19.064Z,26.38
2022-12-23T02:21:19.073Z,27.10
2022-12-23T02:22:19.072Z,31.36
2022-12-23T02:23:19.070Z,29.32
2022-12-23T02:24:23.066Z,26.18
2022-12-23T02:25:19.077Z,30.42
2022-12-23T02:26:19.073Z,30.72
2022-12-23T02:27:15.079Z,27.98
2022-12-23T02:28:19.074Z,32.52
2022-12-23T02:29:19.066Z,29.80
2022-12-23T02:30:19.067Z,27.60
2022-12-23T02:31:21.199Z,33.10
2022-12-23T02:32:19.071Z,31.12
2022-12-23T02:33:19.072Z,27.74
2022-12-23T02:34:19.068Z,32.22
2022-12-23T02:35:21.067Z,26.76
2022-12-23T02:36:19.069Z,27.32
2022-12-23T02:37:19.076Z,33.36
2022-12-23T02:38:20.069Z,33.80
2022-12-23T02:39:21.071Z,35.36
2022-12-23T02:40:19.094Z,33.30
2022-12-23T02:41:21.067Z,34.86
2022-12-23T02:42:16.071Z,34.08
2022-12-23T02:43:19.086Z,31.54
2022-12-23T02:44:19.068Z,30.12
2022-12-23T02:45:23.065Z,30.74
2022-12-23T02:46:21.111Z,35.00
2022-12-23T02:47:18.072Z,35.24
2022-12-23T02:48:21.070Z,31.72
2022-12-23T02:49:13.142Z,30.80
2022-12-23T02:50:14.071Z,33.72
2022-12-23T02:51:13.121Z,36.08
2022-12-23T02:52:15.083Z,34.60
2022-12-23T02:53:19.066Z,34.14
2022-12-23T02:54:13.101Z,34.58
2022-12-23T02:55:13.098Z,34.68
2022-12-23T02:56:11.089Z,33.02
2022-12-23T02:57:11.079Z,31.50
2022-12-23T02:58:13.102Z,31.42
2022-12-23T02:59:13.115Z,35.74
2022-12-23T03:00:11.067Z,34.84
2022-12-23T03:01:12.173Z,31.90
2022-12-23T03:02:11.277Z,34.30
2022-12-23T03:03:11.131Z,33.96
2022-12-23T03:04:11.082Z,33.32
2022-12-23T03:05:19.076Z,35.88
2022-12-23T03:06:17.067Z,33.52
2022-12-23T03:07:18.784Z,35.56
2022-12-23T03:08:20.073Z,32.54
2022-12-23T03:09:13.086Z,33.60
2022-12-23T03:10:21.068Z,36.72
2022-12-23T03:11:15.083Z,31.86
2022-12-23T03:12:19.084Z,30.66
2022-12-23T03:13:19.072Z,30.58
2022-12-23T03:14:21.070Z,33.14
2022-12-23T03:15:19.069Z,31.60
2022-12-23T03:16:21.145Z,28.50
2022-12-23T03:17:23.082Z,27.72
2022-12-23T03:18:19.079Z,28.58
2022-12-23T03:19:19.079Z,29.10
2022-12-23T03:20:19.069Z,32.30
2022-12-23T03:21:20.074Z,32.78
2022-12-23T03:22:19.071Z,31.08
2022-12-23T03:23:19.093Z,33.44
2022-12-23T03:24:19.075Z,29.74
2022-12-23T03:25:19.072Z,28.70
2022-12-23T03:26:16.075Z,26.90
2022-12-23T03:27:18.076Z,27.40
2022-12-23T03:28:21.080Z,29.98
2022-12-23T03:29:15.079Z,28.94
2022-12-23T03:30:15.070Z,28.60
2022-12-23T03:31:14.144Z,27.08
2022-12-23T03:32:12.076Z,28.62
2022-12-23T03:33:15.078Z,28.50
2022-12-23T03:34:14.073Z,26.86
2022-12-23T03:35:11.080Z,27.20
2022-12-23T03:36:20.074Z,27.96
2022-12-23T03:37:12.075Z,30.08
2022-12-23T03:38:11.075Z,29.44
2022-12-23T03:39:14.076Z,27.62
2022-12-23T03:40:19.076Z,25.38
2022-12-23T03:41:16.070Z,26.90
2022-12-23T03:42:17.075Z,25.80
2022-12-23T03:43:16.087Z,26.98
2022-12-23T03:44:20.075Z,23.58
2022-12-23T03:45:39.378Z,26.40
2022-12-23T03:46:19.381Z,26.50
2022-12-23T03:47:19.081Z,26.64
2022-12-23T03:48:20.084Z,27.74
2022-12-23T03:49:21.072Z,31.12
2022-12-23T03:50:12.080Z,28.42
2022-12-23T03:51:19.073Z,28.30
2022-12-23T03:52:21.240Z,30.82
2022-12-23T03:53:20.075Z,30.38
2022-12-23T03:54:14.076Z,30.22
2022-12-23T03:55:17.075Z,30.88
2022-12-23T03:56:19.105Z,31.70
2022-12-23T03:57:11.089Z,30.22
2022-12-23T03:58:19.073Z,24.12
2022-12-23T03:59:17.072Z,31.10
2022-12-23T04:00:11.063Z,29.48
2022-12-23T04:01:19.097Z,28.86
2022-12-23T04:02:20.288Z,26.64
2022-12-23T04:03:21.212Z,27.84
2022-12-23T04:04:20.142Z,28.20
2022-12-23T04:05:19.076Z,28.78
2022-12-23T04:06:14.077Z,28.20
2022-12-23T04:07:19.076Z,28.74
2022-12-23T04:08:20.072Z,27.98
2022-12-23T04:09:12.040Z,24.58
2022-12-23T04:10:11.096Z,26.72
2022-12-23T04:11:11.068Z,29.38
2022-12-23T04:12:11.066Z,30.38
2022-12-23T04:13:11.068Z,26.80
2022-12-23T04:14:11.065Z,29.04
2022-12-23T04:15:13.345Z,32.04
2022-12-23T04:16:11.124Z,28.64
2022-12-23T04:17:11.068Z,28.60
2022-12-23T04:18:11.068Z,26.34
2022-12-23T04:19:11.064Z,25.78
2022-12-23T04:20:11.077Z,26.44
2022-12-23T04:21:11.063Z,23.16
2022-12-23T04:22:11.065Z,27.22
2022-12-23T04:23:11.079Z,26.70
2022-12-23T04:24:11.068Z,30.58
2022-12-23T04:25:11.069Z,26.32
2022-12-23T04:26:11.075Z,28.06
2022-12-23T04:27:12.074Z,27.10
2022-12-23T04:28:11.068Z,26.58
2022-12-23T04:29:11.074Z,28.90
2022-12-23T04:30:11.067Z,29.46
2022-12-23T04:31:11.108Z,29.02
2022-12-23T04:32:11.071Z,28.60
2022-12-23T04:33:11.078Z,25.28
2022-12-23T04:34:11.068Z,27.36
2022-12-23T04:35:11.072Z,25.88
2022-12-23T04:36:11.072Z,23.00
2022-12-23T04:37:11.070Z,26.00
2022-12-23T04:38:11.068Z,25.72
2022-12-23T04:39:11.074Z,25.12
2022-12-23T04:40:11.065Z,26.16
2022-12-23T04:41:11.078Z,26.12
2022-12-23T04:42:11.072Z,23.58
2022-12-23T04:43:11.066Z,24.18
2022-12-23T04:44:11.077Z,24.68
2022-12-23T04:45:11.082Z,24.06
2022-12-23T04:46:11.120Z,24.48
2022-12-23T04:47:11.081Z,23.68
2022-12-23T04:48:11.076Z,24.02
2022-12-23T04:49:11.069Z,21.64
2022-12-23T04:50:14.075Z,21.98
2022-12-23T04:51:11.074Z,21.68
2022-12-23T04:52:11.068Z,22.18
2022-12-23T04:53:12.067Z,21.36
2022-12-23T04:54:11.080Z,22.26
2022-12-23T04:55:11.078Z,19.52
2022-12-23T04:56:11.072Z,22.48
2022-12-23T04:57:11.073Z,23.22
2022-12-23T04:58:11.070Z,20.72
2022-12-23T04:59:11.081Z,22.36
2022-12-23T05:00:11.072Z,21.98
2022-12-23T05:01:11.188Z,22.06
2022-12-23T05:02:11.372Z,22.00
2022-12-23T05:03:11.173Z,22.46
2022-12-23T05:04:11.086Z,23.24
2022-12-23T05:05:11.086Z,20.34
2022-12-23T05:06:11.076Z,20.82
2022-12-23T05:07:11.084Z,20.76
2022-12-23T05:08:11.074Z,20.14
2022-12-23T05:09:11.091Z,20.48
2022-12-23T05:10:11.084Z,19.70
2022-12-23T05:11:11.079Z,20.64
2022-12-23T05:12:11.069Z,19.70
2022-12-23T05:13:11.078Z,18.80
2022-12-23T05:14:11.088Z,21.46
2022-12-23T05:15:11.077Z,21.42
2022-12-23T05:16:11.108Z,20.68
2022-12-23T05:17:11.072Z,20.24
2022-12-23T05:18:11.069Z,18.82
2022-12-23T05:19:11.081Z,20.48
2022-12-23T05:20:11.073Z,20.28
2022-12-23T05:21:11.075Z,20.08
2022-12-23T05:22:11.089Z,19.36
2022-12-23T05:23:11.076Z,17.58
2022-12-23T05:24:11.070Z,20.46
2022-12-23T05:25:11.071Z,19.86
2022-12-23T05:26:11.074Z,18.16
2022-12-23T05:27:11.074Z,17.88
2022-12-23T05:28:11.070Z,16.72
2022-12-23T05:29:11.078Z,17.80
2022-12-23T05:30:11.082Z,16.98
2022-12-23T05:31:11.111Z,17.98
2022-12-23T05:32:11.146Z,18.70
2022-12-23T05:33:11.160Z,21.02
2022-12-23T05:34:11.184Z,16.38
2022-12-23T05:35:11.081Z,17.22
2022-12-23T05:36:11.078Z,16.10
2022-12-23T05:37:11.081Z,16.34
2022-12-23T05:38:11.087Z,16.70
2022-12-23T05:39:11.073Z,18.18
2022-12-23T05:40:11.070Z,15.56
2022-12-23T05:41:11.074Z,18.98
2022-12-23T05:42:11.075Z,18.58
2022-12-23T05:43:11.080Z,18.02
2022-12-23T05:44:11.073Z,20.10
2022-12-23T05:45:11.077Z,18.08
2022-12-23T05:46:11.134Z,17.92
2022-12-23T05:47:11.074Z,21.72
2022-12-23T05:48:11.092Z,18.26
2022-12-23T05:49:11.125Z,18.68
2022-12-23T05:50:11.074Z,17.48
2022-12-23T05:51:11.082Z,20.12
2022-12-23T05:52:11.080Z,19.42
2022-12-23T05:53:11.081Z,16.90
2022-12-23T05:54:11.079Z,19.48
2022-12-23T05:55:11.073Z,16.12
2022-12-23T05:56:11.069Z,18.94
2022-12-23T05:57:11.078Z,17.00
2022-12-23T05:58:11.081Z,16.04
2022-12-23T05:59:11.117Z,18.10
2022-12-23T06:00:11.084Z,15.80
2022-12-23T06:01:11.082Z,16.70
2022-12-23T06:02:11.272Z,15.52
2022-12-23T06:03:11.274Z,17.92
2022-12-23T06:04:11.253Z,16.96
2022-12-23T06:05:11.076Z,18.24
2022-12-23T06:06:11.076Z,15.22
2022-12-23T06:07:11.083Z,14.60
2022-12-23T06:08:11.088Z,16.36
2022-12-23T06:09:11.076Z,17.30
2022-12-23T06:10:11.083Z,14.98
2022-12-23T06:11:11.074Z,12.74
2022-12-23T06:12:11.077Z,15.10
2022-12-23T06:13:11.087Z,17.16
2022-12-23T06:14:11.076Z,13.78
2022-12-23T06:15:11.071Z,14.68
2022-12-23T06:16:11.147Z,13.92
2022-12-23T06:17:11.076Z,14.54
2022-12-23T06:18:11.078Z,15.28
2022-12-23T06:19:11.104Z,14.54
2022-12-23T06:20:17.933Z,14.20
2022-12-23T06:21:13.363Z,14.64
2022-12-23T06:22:11.079Z,14.04
2022-12-23T06:23:11.081Z,13.70
2022-12-23T06:24:11.075Z,13.24
2022-12-23T06:25:11.085Z,13.70
2022-12-23T06:26:11.078Z,12.74
2022-12-23T06:27:11.079Z,14.22
2022-12-23T06:28:11.076Z,13.40
2022-12-23T06:29:11.089Z,12.72
2022-12-23T06:30:11.076Z,12.70
2022-12-23T06:31:11.076Z,13.10
2022-12-23T06:32:11.183Z,12.28
2022-12-23T06:33:11.076Z,13.90
2022-12-23T06:34:11.078Z,11.86
2022-12-23T06:35:11.089Z,13.06
2022-12-23T06:36:11.077Z,11.58
2022-12-23T06:37:11.077Z,12.24
2022-12-23T06:38:12.420Z,12.36
2022-12-23T06:39:11.079Z,13.42
2022-12-23T06:40:11.074Z,11.10
2022-12-23T06:41:11.080Z,12.00
2022-12-23T06:42:11.087Z,11.48
2022-12-23T06:43:11.078Z,13.02
2022-12-23T06:44:11.083Z,11.92
2022-12-23T06:45:11.076Z,10.76
2022-12-23T06:46:11.123Z,14.42
2022-12-23T06:47:11.084Z,12.64
2022-12-23T06:48:11.077Z,11.40
2022-12-23T06:49:13.676Z,12.10
2022-12-23T06:50:11.096Z,10.86
2022-12-23T06:51:11.077Z,11.02
2022-12-23T06:52:11.079Z,10.76
2022-12-23T06:53:11.090Z,12.54
2022-12-23T06:54:12.085Z,11.18
2022-12-23T06:55:11.081Z,12.08
2022-12-23T06:56:11.076Z,12.20
2022-12-23T06:57:11.081Z,11.34
2022-12-23T06:58:11.080Z,10.80
2022-12-23T06:59:11.079Z,11.74
2022-12-23T07:00:11.063Z,11.98
2022-12-23T07:01:11.117Z,12.00
2022-12-23T07:02:12.234Z,11.90
2022-12-23T07:03:11.172Z,12.56
2022-12-23T07:04:11.056Z,13.62
2022-12-23T07:05:11.065Z,11.84
2022-12-23T07:06:11.059Z,12.48
2022-12-23T07:07:11.079Z,13.34
2022-12-23T07:08:11.063Z,13.26
2022-12-23T07:09:11.064Z,14.08
2022-12-23T07:10:11.057Z,14.64
2022-12-23T07:11:11.051Z,12.24
2022-12-23T07:12:11.063Z,14.24
2022-12-23T07:13:11.060Z,12.42
2022-12-23T07:14:11.057Z,14.44
2022-12-23T07:15:11.063Z,12.84
2022-12-23T07:16:11.120Z,14.12
2022-12-23T07:17:11.242Z,12.66
2022-12-23T07:18:11.065Z,13.20
2022-12-23T07:19:11.080Z,12.92
2022-12-23T07:20:11.063Z,14.00
2022-12-23T07:21:21.138Z,11.66
2022-12-23T07:22:13.353Z,13.08
2022-12-23T07:23:11.060Z,12.72
2022-12-23T07:24:11.059Z,12.58
2022-12-23T07:25:11.059Z,12.80
2022-12-23T07:26:11.061Z,13.76
2022-12-23T07:27:11.064Z,10.56
2022-12-23T07:28:11.060Z,11.22
2022-12-23T07:29:11.063Z,9.52
2022-12-23T07:30:11.062Z,9.70
2022-12-23T07:31:11.123Z,10.48
2022-12-23T07:32:11.143Z,10.26
2022-12-23T07:33:11.062Z,10.02
2022-12-23T07:34:11.065Z,11.52
2022-12-23T07:35:11.058Z,10.34
2022-12-23T07:36:11.076Z,7.52
2022-12-23T07:37:11.072Z,8.94
2022-12-23T07:38:11.082Z,10.36
2022-12-23T07:39:11.061Z,10.50
2022-12-23T07:40:11.072Z,9.70
2022-12-23T07:41:11.061Z,9.00
2022-12-23T07:42:43.689Z,8.78
2022-12-23T07:43:13.341Z,9.14
2022-12-23T07:44:11.062Z,9.52
2022-12-23T07:45:11.054Z,8.92
2022-12-23T07:46:11.104Z,9.22
2022-12-23T07:47:11.063Z,6.46
2022-12-23T07:48:11.056Z,8.20
2022-12-23T07:49:11.071Z,7.72
2022-12-23T07:50:11.078Z,8.10
2022-12-23T07:51:11.056Z,8.06
2022-12-23T07:52:11.062Z,8.64
2022-12-23T07:53:11.085Z,7.24
2022-12-23T07:54:11.075Z,7.22
2022-12-23T07:55:11.078Z,8.54
2022-12-23T07:56:11.070Z,7.90
2022-12-23T07:57:11.068Z,8.96
2022-12-23T07:58:11.063Z,8.38
2022-12-23T07:59:11.069Z,8.26
2022-12-23T08:00:11.068Z,9.46
2022-12-23T08:01:11.117Z,8.66
2022-12-23T08:02:11.220Z,9.40
2022-12-23T08:03:12.209Z,9.50
2022-12-23T08:04:11.063Z,8.74
2022-12-23T08:05:11.171Z,8.42
2022-12-23T08:06:11.064Z,10.42
2022-12-23T08:07:11.063Z,9.74
2022-12-23T08:08:11.062Z,9.34
2022-12-23T08:09:11.075Z,9.50
2022-12-23T08:10:11.061Z,8.30
2022-12-23T08:11:11.065Z,9.60
2022-12-23T08:12:11.069Z,9.30
2022-12-23T08:13:11.070Z,9.52
2022-12-23T08:14:11.073Z,9.72
2022-12-23T08:15:11.082Z,9.46
2022-12-23T08:16:11.126Z,9.38
2022-12-23T08:17:11.122Z,10.46
2022-12-23T08:18:11.072Z,10.20
2022-12-23T08:19:11.065Z,9.86
2022-12-23T08:20:11.063Z,9.42
2022-12-23T08:21:16.064Z,9.96
2022-12-23T08:22:11.062Z,10.28
2022-12-23T08:23:11.063Z,9.26
2022-12-23T08:24:11.071Z,9.62
2022-12-23T08:25:11.062Z,9.78
2022-12-23T08:26:14.075Z,9.96
2022-12-23T08:27:11.065Z,9.78
2022-12-23T08:28:11.064Z,10.10
2022-12-23T08:29:11.062Z,8.96
2022-12-23T08:30:11.063Z,8.06
2022-12-23T08:31:17.167Z,5.68
2022-12-23T08:32:11.059Z,8.96
2022-12-23T08:33:11.062Z,8.12
2022-12-23T08:34:11.069Z,9.84
2022-12-23T08:35:11.064Z,9.98
2022-12-23T08:36:14.984Z,9.86
2022-12-23T08:37:14.121Z,9.82
2022-12-23T08:38:11.067Z,9.38
2022-12-23T08:39:11.074Z,10.40
2022-12-23T08:40:11.072Z,9.74
2022-12-23T08:41:11.065Z,9.56
2022-12-23T08:42:11.069Z,10.98
2022-12-23T08:43:11.066Z,10.34
2022-12-23T08:44:11.074Z,10.50
2022-12-23T08:45:11.065Z,8.22
2022-12-23T08:46:11.138Z,9.88
2022-12-23T08:47:11.070Z,8.56
2022-12-23T08:48:11.064Z,8.40
2022-12-23T08:49:11.077Z,8.04
2022-12-23T08:50:11.070Z,8.58
2022-12-23T08:51:11.068Z,9.76
2022-12-23T08:52:11.065Z,9.22
2022-12-23T08:53:11.068Z,8.92
2022-12-23T08:54:11.069Z,8.08
2022-12-23T08:55:11.068Z,8.36
2022-12-23T08:56:11.066Z,8.24
2022-12-23T08:57:11.063Z,9.70
2022-12-23T08:58:11.068Z,8.78
2022-12-23T08:59:18.808Z,9.88
2022-12-23T09:00:13.335Z,10.18
2022-12-23T09:01:12.121Z,9.60
2022-12-23T09:02:12.411Z,10.42
2022-12-23T09:03:11.213Z,10.60
2022-12-23T09:04:11.065Z,8.64
2022-12-23T09:05:11.071Z,9.36
2022-12-23T09:06:28.543Z,9.76
2022-12-23T09:07:13.318Z,10.58
2022-12-23T09:08:11.068Z,8.50
2022-12-23T09:09:11.069Z,9.52
2022-12-23T09:10:11.067Z,9.56
2022-12-23T09:11:11.070Z,10.40
2022-12-23T09:12:11.064Z,9.40
2022-12-23T09:13:11.072Z,9.32
2022-12-23T09:14:11.082Z,9.04
2022-12-23T09:15:11.069Z,10.12
2022-12-23T09:16:11.115Z,10.18
2022-12-23T09:17:11.065Z,9.74
2022-12-23T09:18:11.069Z,10.02
2022-12-23T09:19:11.074Z,8.72
2022-12-23T09:20:11.079Z,10.60
2022-12-23T09:21:16.066Z,9.02
2022-12-23T09:22:11.070Z,9.98
2022-12-23T09:23:11.072Z,9.44
2022-12-23T09:24:11.077Z,9.78
2022-12-23T09:25:11.071Z,9.10
2022-12-23T09:26:11.070Z,9.12
2022-12-23T09:27:11.079Z,8.94
2022-12-23T09:28:11.079Z,9.14
2022-12-23T09:29:11.078Z,10.98
2022-12-23T09:30:11.067Z,9.28
2022-12-23T09:31:11.152Z,8.56
2022-12-23T09:32:11.075Z,10.30
2022-12-23T09:33:11.073Z,10.72
2022-12-23T09:34:12.103Z,10.48
2022-12-23T09:35:11.084Z,10.06
2022-12-23T09:36:11.071Z,10.14
2022-12-23T09:37:11.065Z,9.46
2022-12-23T09:38:11.078Z,11.22
2022-12-23T09:39:11.068Z,10.22
2022-12-23T09:40:13.072Z,10.04
2022-12-23T09:41:19.079Z,10.40
2022-12-23T09:42:19.071Z,11.14
2022-12-23T09:43:21.080Z,11.48
2022-12-23T09:44:19.073Z,11.04
2022-12-23T09:45:21.071Z,11.36
2022-12-23T09:46:19.129Z,10.36
2022-12-23T09:47:13.090Z,10.98
2022-12-23T09:48:17.070Z,10.78
2022-12-23T09:49:14.201Z,11.38
2022-12-23T09:50:19.111Z,9.42
2022-12-23T09:51:11.078Z,10.46
2022-12-23T09:52:13.069Z,10.92
2022-12-23T09:53:19.075Z,10.34
2022-12-23T09:54:19.083Z,8.88
2022-12-23T09:55:12.105Z,8.32
2022-12-23T09:56:19.068Z,9.12
2022-12-23T09:57:21.079Z,9.62
2022-12-23T09:58:19.078Z,7.56
2022-12-23T09:59:21.074Z,7.64
2022-12-23T10:00:15.068Z,7.46
2022-12-23T10:01:21.148Z,7.82
2022-12-23T10:02:19.207Z,7.48
2022-12-23T10:03:19.250Z,8.48
2022-12-23T10:04:21.094Z,6.68
2022-12-23T10:05:19.068Z,7.26
2022-12-23T10:06:18.066Z,7.00
2022-12-23T10:07:19.072Z,9.50
2022-12-23T10:08:23.084Z,8.82
2022-12-23T10:09:11.070Z,7.30
2022-12-23T10:10:19.123Z,6.24
2022-12-23T10:11:19.066Z,7.14
2022-12-23T10:12:22.220Z,7.24
2022-12-23T10:13:22.321Z,7.56
2022-12-23T10:14:19.097Z,8.68
2022-12-23T10:15:21.071Z,8.76
2022-12-23T10:16:16.087Z,8.14
2022-12-23T10:17:20.078Z,10.18
2022-12-23T10:18:19.071Z,10.22
2022-12-23T10:19:17.075Z,9.48
2022-12-23T10:20:19.128Z,11.00
2022-12-23T10:21:22.065Z,12.82
2022-12-23T10:22:21.071Z,8.74
2022-12-23T10:23:17.074Z,9.30
2022-12-23T10:24:19.081Z,7.86
2022-12-23T10:25:19.070Z,27.30
2022-12-23T10:26:19.067Z,9.38
2022-12-23T10:27:19.070Z,9.38
2022-12-23T10:28:11.066Z,9.06
2022-12-23T10:29:19.418Z,9.02
2022-12-23T10:30:50.888Z,9.18
2022-12-23T10:32:23.452Z,8.20
2022-12-23T10:33:22.092Z,6.28
2022-12-23T10:34:21.076Z,7.78
2022-12-23T10:35:19.070Z,8.54
2022-12-23T10:36:19.110Z,7.64
2022-12-23T10:37:19.067Z,7.96
2022-12-23T10:38:19.067Z,7.24
2022-12-23T10:39:19.084Z,7.84
2022-12-23T10:40:19.069Z,8.44
2022-12-23T10:41:19.073Z,8.18
2022-12-23T10:42:21.081Z,8.98
2022-12-23T10:43:19.089Z,7.24
2022-12-23T10:44:21.083Z,7.42
2022-12-23T10:45:19.090Z,7.80
2022-12-23T10:46:19.111Z,6.80
2022-12-23T10:47:21.071Z,9.90
2022-12-23T10:48:19.074Z,7.20
2022-12-23T10:49:21.084Z,7.48
2022-12-23T10:50:19.078Z,7.56
2022-12-23T10:51:21.072Z,7.44
2022-12-23T10:52:20.074Z,7.58
2022-12-23T10:53:14.107Z,8.06
2022-12-23T10:54:19.079Z,6.92
2022-12-23T10:55:19.070Z,7.66
2022-12-23T10:56:11.073Z,6.00
2022-12-23T10:57:11.073Z,7.80
2022-12-23T10:58:17.097Z,7.54
2022-12-23T10:59:18.071Z,6.48
2022-12-23T11:00:21.070Z,7.12
2022-12-23T11:01:18.631Z,8.16
2022-12-23T11:02:21.354Z,6.80
2022-12-23T11:03:19.232Z,7.40
2022-12-23T11:04:16.095Z,7.74
2022-12-23T11:05:16.069Z,9.42
2022-12-23T11:06:11.073Z,9.46
2022-12-23T11:07:41.969Z,8.84
2022-12-23T11:08:13.204Z,9.04
2022-12-23T11:09:18.071Z,7.90
2022-12-23T11:10:19.091Z,8.08
2022-12-23T11:11:11.080Z,9.88
2022-12-23T11:12:11.070Z,5.94
2022-12-23T11:13:11.074Z,6.86
2022-12-23T11:14:19.076Z,7.24
2022-12-23T11:15:19.073Z,7.08
2022-12-23T11:16:19.187Z,6.28
2022-12-23T11:17:19.073Z,6.54
2022-12-23T11:18:17.095Z,6.50
2022-12-23T11:19:15.071Z,7.52
2022-12-23T11:20:17.094Z,6.72
2022-12-23T11:21:15.091Z,6.98
2022-12-23T11:22:19.081Z,6.68
2022-12-23T11:23:21.076Z,5.50
2022-12-23T11:24:16.082Z,5.46
2022-12-23T11:25:19.074Z,5.90
2022-12-23T11:26:13.075Z,6.68
2022-12-23T11:27:14.092Z,6.42
2022-12-23T11:28:15.069Z,5.38
2022-12-23T11:29:17.082Z,5.44
2022-12-23T11:30:18.105Z,5.36
2022-12-23T11:31:12.432Z,4.84
2022-12-23T11:32:19.073Z,5.42
2022-12-23T11:33:20.083Z,5.90
2022-12-23T11:34:16.076Z,5.20
2022-12-23T11:35:19.159Z,5.34
2022-12-23T11:36:19.076Z,6.94
2022-12-23T11:37:19.072Z,9.92
2022-12-23T11:38:14.077Z,5.72
2022-12-23T11:39:19.082Z,5.46
2022-12-23T11:40:19.073Z,6.70
2022-12-23T11:41:11.078Z,5.00
2022-12-23T11:42:18.085Z,11.44
2022-12-23T11:43:15.095Z,5.10
2022-12-23T11:44:19.083Z,6.02
2022-12-23T11:45:15.077Z,6.56
2022-12-23T11:46:16.133Z,5.28
2022-12-23T11:47:19.085Z,5.34
2022-12-23T11:48:19.076Z,4.52
2022-12-23T11:49:19.077Z,4.44
2022-12-23T11:50:19.086Z,5.10
2022-12-23T11:51:11.082Z,4.22
2022-12-23T11:52:16.075Z,4.90
2022-12-23T11:53:19.077Z,3.96
2022-12-23T11:54:15.079Z,4.70
2022-12-23T11:55:19.083Z,4.26
2022-12-23T11:56:12.094Z,3.72
2022-12-23T11:57:18.203Z,4.32
2022-12-23T11:58:19.085Z,4.76
2022-12-23T11:59:19.084Z,4.58
2022-12-23T12:00:19.074Z,4.36
2022-12-23T12:01:18.074Z,4.22
2022-12-23T12:02:19.157Z,4.16
2022-12-23T12:03:16.109Z,4.36
2022-12-23T12:04:15.085Z,3.98
2022-12-23T12:05:19.083Z,3.34
2022-12-23T12:06:14.082Z,4.40
2022-12-23T12:07:14.083Z,4.02
2022-12-23T12:08:15.096Z,3.82
2022-12-23T12:09:13.117Z,3.74
2022-12-23T12:10:18.083Z,3.98
2022-12-23T12:11:16.081Z,3.66
2022-12-23T12:12:16.078Z,3.20
2022-12-23T12:13:21.072Z,4.16
2022-12-23T12:14:15.080Z,3.72
2022-12-23T12:15:19.079Z,3.78
2022-12-23T12:16:21.170Z,4.50
2022-12-23T12:17:19.090Z,3.70
2022-12-23T12:18:15.083Z,8.54
2022-12-23T12:19:20.078Z,5.30
2022-12-23T12:20:19.083Z,4.38
2022-12-23T12:21:18.075Z,5.48
2022-12-23T12:22:20.076Z,4.28
2022-12-23T12:23:21.127Z,4.82
2022-12-23T12:24:19.705Z,4.26
2022-12-23T12:25:20.076Z,5.00
2022-12-23T12:26:17.074Z,4.42
2022-12-23T12:27:12.082Z,5.08
2022-12-23T12:28:19.082Z,5.34
2022-12-23T12:29:19.080Z,7.68
2022-12-23T12:30:17.092Z,6.64
2022-12-23T12:31:21.168Z,4.44
2022-12-23T12:32:21.088Z,3.24
2022-12-23T12:33:21.104Z,3.72
2022-12-23T12:34:19.094Z,3.58
2022-12-23T12:35:19.075Z,5.64
2022-12-23T12:36:18.145Z,3.90
2022-12-23T12:37:20.081Z,6.10
2022-12-23T12:38:19.080Z,5.42
2022-12-23T12:39:17.078Z,4.98
2022-12-23T12:40:19.076Z,6.06
2022-12-23T12:41:19.078Z,5.64
2022-12-23T12:42:19.088Z,5.38
2022-12-23T12:43:21.082Z,6.00
2022-12-23T12:44:19.077Z,3.78
2022-12-23T12:45:19.076Z,7.46
2022-12-23T12:46:19.102Z,6.68
2022-12-23T12:47:44.539Z,5.44
2022-12-23T12:48:21.115Z,5.88
2022-12-23T12:49:19.105Z,5.18
2022-12-23T12:50:15.080Z,4.56
2022-12-23T12:51:21.097Z,4.76
2022-12-23T12:52:17.079Z,4.10
2022-12-23T12:53:19.082Z,4.98
2022-12-23T12:54:21.080Z,4.86
2022-12-23T12:55:19.083Z,4.76
2022-12-23T12:56:19.095Z,5.60
2022-12-23T12:57:15.080Z,4.52
2022-12-23T12:58:19.078Z,5.52
2022-12-23T12:59:18.083Z,4.54
2022-12-23T13:00:18.083Z,5.72
2022-12-23T13:01:21.094Z,5.42
2022-12-23T13:02:19.089Z,4.84